Time;durP1;ratioP1;P1;durP2;ratioP2;P2;SDS_P1;SDS_P2;PMS_P1;PMS_P2;Temp;Humidity;BMP_temperature;BMP_pressure;BME280_temperature;BME280_humidity;BME280_pressure;Samples;Min_cycle;Max_cycle;Signal;HPM_P1;HPM_P2
2023/07/22 00:01:39;;;;;;;3.30;2.17;;;23.30;66.10;;;;;;4993637;28;20081;-71
2023/07/22 00:04:04;;;;;;;2.17;2.03;;;23.10;47.90;;;;;;4993442;28;20057;-71
2023/07/22 00:06:30;;;;;;;3.35;1.95;;;23.10;47.90;;;;;;4993512;28;20034;-71
2023/07/22 00:08:56;;;;;;;2.22;2.00;;;23.10;48.00;;;;;;4993452;28;20449;-71
2023/07/22 00:11:21;;;;;;;2.00;1.88;;;23.00;48.00;;;;;;4993405;28;20149;-71
2023/07/22 00:13:47;;;;;;;2.10;1.90;;;23.00;48.00;;;;;;4993204;28;20033;-71
2023/07/22 00:16:13;;;;;;;2.47;2.28;;;23.10;48.20;;;;;;4993243;28;20030;-71
2023/07/22 00:18:38;;;;;;;1.88;1.77;;;23.00;48.10;;;;;;4993631;28;20026;-73
2023/07/22 00:21:04;;;;;;;4.40;2.45;;;23.00;48.10;;;;;;4992517;28;20030;-73
2023/07/22 00:23:30;;;;;;;2.22;2.13;;;23.00;48.20;;;;;;4993532;28;20030;-73
2023/07/22 00:25:55;;;;;;;1.95;1.85;;;23.00;48.00;;;;;;4993251;28;20018;-73
2023/07/22 00:28:21;;;;;;;1.88;1.75;;;23.00;48.10;;;;;;4993090;28;20033;-71
2023/07/22 00:30:48;;;;;;;2.17;2.05;;;23.00;48.20;;;;;;4993136;28;20018;-71
2023/07/22 00:33:14;;;;;;;1.85;1.75;;;23.00;48.10;;;;;;4993007;28;20370;-71
2023/07/22 00:35:40;;;;;;;2.05;1.95;;;23.00;48.20;;;;;;4992852;28;20088;-71
2023/07/22 00:38:06;;;;;;;2.00;1.80;;;23.00;48.40;;;;;;4992889;28;20018;-71
2023/07/22 00:40:35;;;;;;;2.45;2.22;;;23.00;48.30;;;;;;4992891;28;20027;-71
2023/07/22 00:43:01;;;;;;;2.60;2.40;;;23.00;48.40;;;;;;4992936;28;20442;-71
2023/07/22 00:45:26;;;;;;;2.58;1.80;;;22.90;48.20;;;;;;4993343;28;20054;-71
2023/07/22 00:47:52;;;;;;;2.30;2.10;;;22.90;48.40;;;;;;4992794;28;20069;-71
2023/07/22 00:50:18;;;;;;;2.00;1.85;;;22.90;48.90;;;;;;4992738;28;20130;-71
2023/07/22 00:52:44;;;;;;;2.28;2.08;;;22.90;48.40;;;;;;4992801;28;20027;-71
2023/07/22 00:55:10;;;;;;;2.67;1.95;;;22.90;48.50;;;;;;4992684;28;20034;-71
2023/07/22 00:57:37;;;;;;;2.05;1.95;;;22.90;48.50;;;;;;4992793;28;20026;-72
2023/07/22 01:00:05;;;;;;;1.77;1.55;;;22.90;48.40;;;;;;4992813;28;20061;-71
2023/07/22 01:02:31;;;;;;;2.25;2.05;;;22.90;48.60;;;;;;4992505;28;20562;-71
2023/07/22 01:04:56;;;;;;;1.60;1.50;;;22.90;48.50;;;;;;4992702;28;20018;-71
2023/07/22 01:07:22;;;;;;;2.00;1.90;;;22.90;48.50;;;;;;4992520;28;20076;-71
2023/07/22 01:09:48;;;;;;;2.05;1.85;;;22.80;48.50;;;;;;4992508;28;20121;-71
2023/07/22 01:12:13;;;;;;;2.13;2.00;;;22.80;48.40;;;;;;4992664;28;20035;-71
2023/07/22 01:14:41;;;;;;;1.65;1.55;;;22.90;48.50;;;;;;4992834;28;20473;-70
2023/07/22 01:17:09;;;;;;;2.22;2.03;;;22.80;48.40;;;;;;4992480;28;20026;-71
2023/07/22 01:19:35;;;;;;;2.30;2.10;;;22.80;48.50;;;;;;4992406;28;20102;-69
2023/07/22 01:22:04;;;;;;;2.08;1.88;;;22.80;48.60;;;;;;4992166;28;20162;-70
2023/07/22 01:24:30;;;;;;;2.85;1.70;;;22.80;48.50;;;;;;4992292;28;20073;-70
2023/07/22 01:26:56;;;;;;;1.92;1.83;;;22.80;48.50;;;;;;4992175;28;20478;-72
2023/07/22 01:29:23;;;;;;;1.88;1.77;;;22.80;48.60;;;;;;4992316;28;20105;-72
2023/07/22 01:31:51;;;;;;;2.15;2.05;;;22.80;48.50;;;;;;4994453;28;20038;-72
2023/07/22 01:34:17;;;;;;;2.10;2.00;;;22.70;48.70;;;;;;4996220;28;20085;-72
2023/07/22 01:36:43;;;;;;;2.75;1.90;;;22.70;48.60;;;;;;4996302;28;20481;-72
2023/07/22 01:39:10;;;;;;;3.47;2.10;;;22.70;48.50;;;;;;4996267;28;20481;-72
2023/07/22 01:41:36;;;;;;;1.77;1.67;;;22.70;48.70;;;;;;4996217;28;20469;-71
2023/07/22 01:44:02;;;;;;;1.70;1.60;;;22.70;48.60;;;;;;4996644;28;20085;-72
2023/07/22 01:46:28;;;;;;;2.05;1.90;;;22.70;48.60;;;;;;4996230;28;20051;-72
2023/07/22 01:48:55;;;;;;;2.33;2.03;;;23.70;49.30;;;;;;4978614;28;20054;-72
2023/07/22 01:51:20;;;;;;;1.90;1.80;;;22.70;48.70;;;;;;4995960;28;20026;-73
2023/07/22 01:53:46;;;;;;;1.92;1.73;;;22.60;48.60;;;;;;4995929;28;20048;-73
2023/07/22 01:56:11;;;;;;;1.88;1.77;;;22.60;48.60;;;;;;4996074;28;20338;-70
2023/07/22 01:58:37;;;;;;;2.22;1.90;;;22.60;48.70;;;;;;4995914;28;20025;-70
2023/07/22 02:01:03;;;;;;;2.08;1.88;;;22.60;48.60;;;;;;4995760;28;20026;-70
2023/07/22 02:03:28;;;;;;;2.13;1.63;;;22.60;48.70;;;;;;4995610;28;20057;-70
2023/07/22 02:06:02;;;;;;;1.70;1.60;;;22.60;48.70;;;;;;4995584;28;20022;-70
2023/07/22 02:08:27;;;;;;;1.88;1.77;;;22.60;48.90;;;;;;4995940;28;20025;-70
2023/07/22 02:10:53;;;;;;;2.22;1.90;;;22.60;48.80;;;;;;4979014;28;20026;-73
2023/07/22 02:13:19;;;;;;;1.92;1.63;;;22.60;48.70;;;;;;4995726;28;20096;-72
2023/07/22 02:15:44;;;;;;;1.52;1.42;;;22.60;48.80;;;;;;4995438;28;20158;-73
2023/07/22 02:18:10;;;;;;;1.77;1.67;;;22.60;48.80;;;;;;4995437;28;20024;-73
2023/07/22 02:20:36;;;;;;;1.70;1.60;;;22.60;48.80;;;;;;4995721;28;20032;-73
2023/07/22 02:23:02;;;;;;;1.92;1.80;;;22.50;48.80;;;;;;4995708;28;20014;-73
2023/07/22 02:25:28;;;;;;;1.83;1.73;;;22.50;48.80;;;;;;4995766;28;20050;-73
2023/07/22 02:27:54;;;;;;;1.88;1.65;;;22.50;48.80;;;;;;4995623;28;20389;-72
2023/07/22 02:30:20;;;;;;;2.10;2.00;;;22.50;48.80;;;;;;4995177;28;20050;-72
2023/07/22 02:32:46;;;;;;;1.65;1.55;;;22.50;48.80;;;;;;4995437;28;20049;-73
2023/07/22 02:35:12;;;;;;;2.03;1.83;;;22.50;48.70;;;;;;4995106;28;20070;-73
2023/07/22 02:37:38;;;;;;;1.95;1.73;;;22.50;48.80;;;;;;4995257;28;20077;-72
2023/07/22 02:40:07;;;;;;;1.80;1.70;;;22.50;48.80;;;;;;4995655;28;20105;-73
2023/07/22 02:42:35;;;;;;;1.60;1.50;;;22.50;49.00;;;;;;4994369;28;20386;-72
2023/07/22 02:45:02;;;;;;;2.10;1.90;;;22.40;48.80;;;;;;4994941;28;20129;-73
2023/07/22 02:47:29;;;;;;;1.92;1.77;;;22.40;48.90;;;;;;4995264;28;20022;-73
2023/07/22 02:49:54;;;;;;;2.53;2.03;;;22.40;48.90;;;;;;4994992;28;20038;-73
2023/07/22 02:52:20;;;;;;;2.17;1.90;;;22.40;49.00;;;;;;4995209;28;20378;-70
2023/07/22 02:55:13;;;;;;;2.33;1.90;;;22.40;48.90;;;;;;4994755;28;20034;-70
2023/07/22 02:57:40;;;;;;;1.95;1.83;;;22.40;49.00;;;;;;4994732;28;20559;-70
2023/07/22 03:00:12;;;;;;;2.00;1.77;;;22.40;48.90;;;;;;4994559;28;20062;-70
2023/07/22 03:02:39;;;;;;;1.83;1.73;;;22.40;49.10;;;;;;4994384;28;20052;-70
2023/07/22 03:05:07;;;;;;;1.75;1.55;;;22.40;49.00;;;;;;4994691;28;20089;-70
2023/07/22 03:07:34;;;;;;;2.13;2.03;;;22.40;49.30;;;;;;4994652;28;20334;-70
2023/07/22 03:10:00;;;;;;;2.58;2.20;;;22.40;49.00;;;;;;4995063;28;20026;-72
2023/07/22 03:12:27;;;;;;;2.20;2.00;;;22.40;49.20;;;;;;4994423;28;20030;-73
2023/07/22 03:14:52;;;;;;;2.47;2.00;;;22.40;49.70;;;;;;4994442;28;20034;-73
2023/07/22 03:17:19;;;;;;;2.22;2.03;;;22.40;49.10;;;;;;4994470;28;20081;-72
2023/07/22 03:19:44;;;;;;;2.10;1.85;;;22.30;49.30;;;;;;4994394;28;20026;-70
2023/07/22 03:22:14;;;;;;;2.67;2.20;;;22.40;49.20;;;;;;4994372;28;20388;-70
2023/07/22 03:24:39;;;;;;;2.15;1.95;;;22.30;49.20;;;;;;4994330;28;20499;-70
2023/07/22 03:27:06;;;;;;;2.45;2.25;;;22.30;49.30;;;;;;4994304;28;20038;-70
2023/07/22 03:29:32;;;;;;;2.35;2.15;;;22.30;49.10;;;;;;4994299;28;20052;-70
2023/07/22 03:31:59;;;;;;;2.00;1.90;;;22.30;49.10;;;;;;4994225;28;20030;-70
2023/07/22 03:34:30;;;;;;;2.47;2.08;;;22.30;49.20;;;;;;4994110;28;20034;-70
2023/07/22 03:36:56;;;;;;;1.85;1.75;;;22.30;49.20;;;;;;4994781;28;20034;-73
2023/07/22 03:39:21;;;;;;;2.38;2.17;;;22.30;49.30;;;;;;4994070;28;20547;-73
2023/07/22 03:41:47;;;;;;;2.65;2.45;;;22.30;49.40;;;;;;4994074;28;20458;-73
2023/07/22 03:44:12;;;;;;;3.03;2.42;;;22.20;49.10;;;;;;4993990;28;20033;-72
2023/07/22 03:46:38;;;;;;;2.72;2.47;;;22.30;49.40;;;;;;4993911;28;20033;-72
2023/07/22 03:49:04;;;;;;;2.65;2.30;;;22.30;49.50;;;;;;4993948;28;20019;-71
2023/07/22 03:51:30;;;;;;;3.28;2.72;;;22.30;50.00;;;;;;4993780;28;20121;-70
2023/07/22 03:53:56;;;;;;;2.97;2.67;;;22.30;49.50;;;;;;4993556;28;20026;-70
2023/07/22 03:56:23;;;;;;;2.58;2.38;;;22.20;49.40;;;;;;4993667;28;20063;-70
2023/07/22 03:58:52;;;;;;;3.65;2.63;;;22.20;49.50;;;;;;4993605;28;20022;-70
2023/07/22 04:01:18;;;;;;;3.22;2.85;;;22.20;49.60;;;;;;4993566;28;20034;-70
2023/07/22 04:03:44;;;;;;;2.45;2.25;;;22.20;49.30;;;;;;4966018;28;20051;-70
2023/07/22 04:06:10;;;;;;;3.78;2.70;;;22.20;49.40;;;;;;4955405;29;20027;-73
2023/07/22 04:08:36;;;;;;;2.88;2.38;;;22.20;49.60;;;;;;4954825;29;20027;-74
2023/07/22 04:11:02;;;;;;;2.67;2.47;;;22.20;49.40;;;;;;4937518;29;20035;-72
2023/07/22 04:13:29;;;;;;;3.03;2.53;;;22.20;49.50;;;;;;4954618;29;20035;-73
2023/07/22 04:15:54;;;;;;;2.75;2.45;;;22.20;49.50;;;;;;4954459;29;20406;-72
2023/07/22 04:18:21;;;;;;;2.58;2.38;;;22.20;49.40;;;;;;4954589;29;20102;-72
2023/07/22 04:20:50;;;;;;;3.10;2.80;;;22.20;49.50;;;;;;4954779;29;20110;-73
2023/07/22 04:23:16;;;;;;;3.30;2.53;;;22.20;49.50;;;;;;4954487;29;20051;-73
2023/07/22 04:25:45;;;;;;;3.42;2.78;;;22.10;49.60;;;;;;4954686;29;20078;-73
2023/07/22 04:28:11;;;;;;;3.45;3.08;;;22.20;49.70;;;;;;4954777;28;20030;-73
2023/07/22 04:30:37;;;;;;;2.97;2.70;;;22.20;49.70;;;;;;4954336;29;20034;-73
2023/07/22 04:33:05;;;;;;;3.38;3.05;;;22.10;49.50;;;;;;4954286;29;20621;-73
2023/07/22 04:35:37;;;;;;;3.92;3.30;;;22.10;49.90;;;;;;4954474;29;20031;-73
2023/07/22 04:38:03;;;;;;;2.92;2.70;;;22.10;49.70;;;;;;4954362;29;20043;-73
2023/07/22 04:40:30;;;;;;;4.03;3.03;;;22.10;49.50;;;;;;4954265;28;20031;-73
2023/07/22 04:42:56;;;;;;;3.45;2.95;;;22.10;49.90;;;;;;4954233;29;20032;-72
2023/07/22 04:45:23;;;;;;;5.07;3.15;;;22.10;49.80;;;;;;4954266;29;20027;-71
2023/07/22 04:47:52;;;;;;;4.70;3.10;;;22.10;49.70;;;;;;4954114;29;20395;-71
2023/07/22 04:50:19;;;;;;;3.42;3.10;;;22.10;49.70;;;;;;4954035;29;20094;-70
2023/07/22 04:52:46;;;;;;;5.22;3.65;;;22.10;49.80;;;;;;4953982;29;20031;-70
2023/07/22 04:55:11;;;;;;;3.38;3.08;;;22.10;49.70;;;;;;4953931;29;20039;-70
2023/07/22 04:57:42;;;;;;;3.95;3.40;;;22.10;50.00;;;;;;4953877;29;20391;-70
2023/07/22 05:00:16;;;;;;;3.40;3.08;;;22.10;50.00;;;;;;4953786;29;20031;-70
2023/07/22 05:02:48;;;;;;;3.17;2.88;;;22.10;49.90;;;;;;4954044;28;20047;-71
2023/07/22 05:05:14;;;;;;;3.63;3.00;;;22.10;50.10;;;;;;4953619;28;20049;-71
2023/07/22 05:07:40;;;;;;;4.90;3.40;;;22.10;49.80;;;;;;4954209;29;20530;-71
2023/07/22 05:10:11;;;;;;;3.47;3.00;;;22.10;49.90;;;;;;4956072;29;20392;-72
2023/07/22 05:12:37;;;;;;;3.90;3.13;;;22.00;49.90;;;;;;4954053;29;20028;-71
2023/07/22 05:15:04;;;;;;;3.75;3.42;;;22.10;50.00;;;;;;4953808;29;20094;-72
2023/07/22 05:17:31;;;;;;;4.40;4.00;;;22.10;49.90;;;;;;4953716;29;20030;-70
2023/07/22 05:19:57;;;;;;;4.60;3.55;;;22.10;49.90;;;;;;4953713;29;20442;-71
2023/07/22 05:22:23;;;;;;;3.65;3.00;;;22.10;50.00;;;;;;4953646;29;20034;-71
2023/07/22 05:24:49;;;;;;;3.50;3.15;;;22.10;49.80;;;;;;4953962;29;20054;-71
2023/07/22 05:27:16;;;;;;;3.35;3.00;;;22.10;50.00;;;;;;4953605;29;20043;-70
2023/07/22 05:29:41;;;;;;;5.15;3.42;;;22.10;49.90;;;;;;4953562;29;20055;-71
2023/07/22 05:32:07;;;;;;;3.72;3.17;;;22.10;50.00;;;;;;4954130;29;20062;-73
2023/07/22 05:34:33;;;;;;;4.18;3.40;;;22.00;50.00;;;;;;4953505;29;20528;-73
2023/07/22 05:36:59;;;;;;;3.47;3.00;;;;;;;;;;4953627;29;20131;-73
2023/07/22 05:39:25;;;;;;;5.68;3.30;;;22.00;49.60;;;;;;4953462;29;20031;-71
2023/07/22 05:41:50;;;;;;;3.83;2.90;;;22.00;50.10;;;;;;4953432;29;20028;-71
2023/07/22 05:44:16;;;;;;;3.58;3.20;;;22.00;50.10;;;;;;4953221;29;20031;-70
2023/07/22 05:46:42;;;;;;;3.80;3.30;;;22.10;50.10;;;;;;4953237;29;20082;-71
2023/07/22 05:49:08;;;;;;;3.33;3.03;;;22.00;50.30;;;;;;4953224;29;20034;-71
2023/07/22 05:51:34;;;;;;;6.88;3.72;;;22.10;50.20;;;;;;4953218;29;20023;-70
2023/07/22 05:53:59;;;;;;;6.55;3.53;;;22.00;50.90;;;;;;4953130;29;20389;-70
2023/07/22 05:56:25;;;;;;;3.63;3.08;;;22.00;50.40;;;;;;4953316;29;20039;-71
2023/07/22 05:58:51;;;;;;;7.32;3.63;;;22.00;50.40;;;;;;4953662;29;20494;-72
2023/07/22 06:01:17;;;;;;;4.07;3.22;;;22.00;50.40;;;;;;4953344;29;20055;-72
2023/07/22 06:03:43;;;;;;;3.97;3.28;;;22.00;50.40;;;;;;4953067;28;20047;-72
2023/07/22 06:06:10;;;;;;;5.72;3.95;;;22.00;50.50;;;;;;4953259;29;20028;-72
2023/07/22 06:08:36;;;;;;;4.20;3.30;;;22.00;50.50;;;;;;4953070;29;20066;-72
2023/07/22 06:11:01;;;;;;;5.22;3.42;;;22.00;50.60;;;;;;4953089;29;20051;-72
2023/07/22 06:13:27;;;;;;;4.85;3.28;;;22.00;50.50;;;;;;4953158;29;20085;-71
2023/07/22 06:15:53;;;;;;;4.70;3.90;;;22.00;50.60;;;;;;4952943;29;20127;-72
2023/07/22 06:18:18;;;;;;;5.20;3.50;;;22.00;50.80;;;;;;4955833;28;20031;-72
2023/07/22 06:20:45;;;;;;;4.50;3.75;;;22.00;50.70;;;;;;4956691;29;20158;-71
2023/07/22 06:23:11;;;;;;;5.05;3.30;;;22.00;50.80;;;;;;4956548;29;20423;-72
2023/07/22 06:25:36;;;;;;;4.53;3.42;;;22.00;50.90;;;;;;4956616;29;20051;-72
2023/07/22 06:28:02;;;;;;;3.45;2.80;;;22.00;50.90;;;;;;4956984;29;20444;-71
2023/07/22 06:30:28;;;;;;;6.63;4.00;;;22.00;50.90;;;;;;4956580;29;20035;-70
2023/07/22 06:32:54;;;;;;;4.35;3.10;;;22.00;51.10;;;;;;4956501;29;20106;-71
2023/07/22 06:35:20;;;;;;;5.38;3.47;;;22.00;51.00;;;;;;4956416;29;20042;-70
2023/07/22 06:37:45;;;;;;;4.35;3.35;;;22.00;51.20;;;;;;4956439;29;20027;-71
2023/07/22 06:40:11;;;;;;;6.70;3.67;;;22.00;51.10;;;;;;4955138;29;20110;-70
2023/07/22 06:42:37;;;;;;;5.25;3.65;;;22.00;51.20;;;;;;4956354;29;20090;-71
2023/07/22 06:45:03;;;;;;;5.28;3.88;;;22.00;51.20;;;;;;4954888;29;20027;-70
2023/07/22 06:47:29;;;;;;;4.78;3.70;;;22.00;51.20;;;;;;4956093;29;20082;-70
2023/07/22 06:49:54;;;;;;;5.43;3.55;;;20.90;51.30;;;;;;4956304;29;20063;-70
2023/07/22 06:52:20;;;;;;;5.57;3.42;;;22.00;51.20;;;;;;4954619;29;20110;-70
2023/07/22 06:54:46;;;;;;;3.72;2.95;;;22.00;51.20;;;;;;4956137;29;20037;-70
2023/07/22 06:57:11;;;;;;;3.83;3.08;;;22.00;51.30;;;;;;4956064;29;20505;-70
2023/07/22 06:59:37;;;;;;;5.50;3.80;;;22.00;51.20;;;;;;4956071;29;20042;-72
2023/07/22 07:02:05;;;;;;;4.63;3.80;;;22.00;51.40;;;;;;4955746;28;20610;-72
2023/07/22 07:04:31;;;;;;;4.45;3.17;;;22.00;51.50;;;;;;4956306;29;20429;-72
2023/07/22 07:06:57;;;;;;;5.60;3.47;;;22.10;51.60;;;;;;4956152;29;20015;-73
2023/07/22 07:09:22;;;;;;;5.78;3.90;;;22.00;51.60;;;;;;4955774;29;20111;-71
2023/07/22 07:11:48;;;;;;;4.38;3.53;;;22.00;51.70;;;;;;4955976;29;20027;-72
2023/07/22 07:14:13;;;;;;;7.00;3.53;;;22.10;51.70;;;;;;4956420;29;20027;-71
2023/07/22 07:16:39;;;;;;;4.90;3.20;;;22.00;51.70;;;;;;4955706;29;20031;-70
2023/07/22 07:19:05;;;;;;;4.63;3.22;;;22.10;51.90;;;;;;4955668;29;20024;-71
2023/07/22 07:21:30;;;;;;;5.80;3.55;;;22.00;51.80;;;;;;4955625;29;20115;-70
2023/07/22 07:23:56;;;;;;;4.72;3.38;;;22.00;51.90;;;;;;4955614;29;20019;-72
2023/07/22 07:26:22;;;;;;;4.70;3.50;;;22.10;51.90;;;;;;4955656;29;20035;-71
2023/07/22 07:28:50;;;;;;;5.78;3.33;;;22.10;52.00;;;;;;4955230;28;20128;-72
2023/07/22 07:31:17;;;;;;;6.53;3.17;;;22.10;52.70;;;;;;4955387;29;20402;-72
2023/07/22 07:33:43;;;;;;;5.97;3.50;;;22.10;52.10;;;;;;4955421;29;20031;-73
2023/07/22 07:36:09;;;;;;;4.00;3.60;;;22.10;52.20;;;;;;4955241;29;20601;-72
2023/07/22 07:38:36;;;;;;;6.18;3.38;;;22.10;52.10;;;;;;4955602;29;20027;-71
2023/07/22 07:41:04;;;;;;;6.88;4.07;;;22.10;51.70;;;;;;4955180;29;20019;-71
2023/07/22 07:43:30;;;;;;;4.57;3.55;;;22.00;52.20;;;;;;4955770;29;20023;-71
2023/07/22 07:46:17;;;;;;;7.57;3.90;;;22.10;52.20;;;;;;4955166;29;20520;-71
2023/07/22 07:48:45;;;;;;;3.80;3.40;;;22.10;52.30;;;;;;4955490;28;20039;-71
2023/07/22 07:57:08;;;;;;;7.78;3.15;;;22.10;52.20;;;;;;4980918;28;20137;-77
2023/07/22 07:59:35;;;;;;;6.20;3.10;;;22.10;52.40;;;;;;4974476;28;20397;-77
2023/07/22 08:02:00;;;;;;;6.43;3.20;;;22.10;52.50;;;;;;4973986;28;20035;-77
2023/07/22 08:04:26;;;;;;;5.10;3.33;;;22.10;52.70;;;;;;4974281;28;20034;-77
2023/07/22 08:06:52;;;;;;;5.22;3.45;;;22.10;52.50;;;;;;4974574;28;20030;-77
2023/07/22 08:09:19;;;;;;;5.43;3.30;;;22.10;52.60;;;;;;4974083;28;20027;-76
2023/07/22 08:11:46;;;;;;;4.55;3.22;;;;;;;;;;4974557;28;20030;-75
2023/07/22 08:14:13;;;;;;;4.65;2.92;;;22.10;52.10;;;;;;4974964;28;20035;-77
2023/07/22 08:16:40;;;;;;;4.25;2.67;;;;;;;;;;4974087;28;20027;-78
2023/07/22 08:19:06;;;;;;;4.07;3.25;;;22.20;52.20;;;;;;4974333;28;20034;-76
2023/07/22 08:21:32;;;;;;;6.68;3.15;;;22.20;52.80;;;;;;4973961;28;20027;-74
2023/07/22 08:23:58;;;;;;;7.40;2.88;;;;;;;;;;4974005;28;20027;-77
2023/07/22 08:26:24;;;;;;;4.05;3.17;;;22.20;52.30;;;;;;4973916;28;20066;-77
2023/07/22 08:28:49;;;;;;;4.35;2.72;;;22.20;53.50;;;;;;4973839;28;20065;-77
2023/07/22 08:31:15;;;;;;;3.45;2.75;;;22.20;52.80;;;;;;4973743;28;20031;-77
2023/07/22 08:33:41;;;;;;;7.00;3.42;;;22.20;53.50;;;;;;4973761;28;20102;-77
2023/07/22 08:36:07;;;;;;;3.17;2.47;;;22.20;52.90;;;;;;4973644;28;20046;-80
2023/07/22 08:38:33;;;;;;;4.85;2.55;;;22.20;71.30;;;;;;4973645;28;20050;-78
2023/07/22 08:40:59;;;;;;;4.03;2.80;;;;;;;;;;4972831;28;20069;-77
2023/07/22 08:43:27;;;;;;;4.95;3.03;;;22.20;52.50;;;;;;4972589;28;20023;-78
2023/07/22 08:45:54;;;;;;;4.70;3.13;;;22.30;53.00;;;;;;4973648;28;20042;-78
2023/07/22 08:48:25;;;;;;;4.13;2.58;;;22.30;53.00;;;;;;4973640;28;20058;-78
2023/07/22 08:51:04;;;;;;;3.95;2.95;;;22.30;53.10;;;;;;4973486;28;20081;-77
2023/07/22 08:53:33;;;;;;;3.63;3.13;;;22.30;53.10;;;;;;4990005;28;20093;-76
2023/07/22 08:56:00;;;;;;;6.35;2.78;;;22.50;71.60;;;;;;4993590;28;20061;-79
2023/07/22 08:58:26;;;;;;;4.47;2.80;;;22.30;53.00;;;;;;4991465;28;20029;-80
2023/07/22 09:00:52;;;;;;;5.82;2.70;;;22.40;53.20;;;;;;4992761;28;20069;-82
2023/07/22 09:03:19;;;;;;;6.00;2.60;;;22.40;53.10;;;;;;4992783;28;20465;-81
2023/07/22 09:05:46;;;;;;;6.30;2.78;;;21.50;52.60;;;;;;4992632;28;20029;-80
2023/07/22 09:08:12;;;;;;;4.03;2.58;;;22.60;71.80;;;;;;4991330;28;20509;-78
2023/07/22 09:10:38;;;;;;;4.32;2.38;;;22.40;71.60;;;;;;4992566;28;20108;-81
2023/07/22 09:13:05;;;;;;;3.33;2.40;;;22.40;53.20;;;;;;4992544;28;20049;-78
2023/07/22 09:15:35;;;;;;;4.15;2.40;;;22.50;53.40;;;;;;4992722;28;20037;-76
2023/07/22 09:18:00;;;;;;;3.92;2.15;;;22.50;53.40;;;;;;4992789;28;20045;-77
2023/07/22 09:20:28;;;;;;;5.30;2.70;;;22.50;53.40;;;;;;4992423;28;20022;-76
2023/07/22 09:22:53;;;;;;;3.67;2.00;;;22.50;53.60;;;;;;4992455;28;20025;-77
2023/07/22 09:25:21;;;;;;;3.67;2.03;;;22.50;53.50;;;;;;4992310;28;20022;-77
2023/07/22 09:27:49;;;;;;;3.42;2.35;;;22.70;72.10;;;;;;4992375;28;20027;-76
2023/07/22 09:30:33;;;;;;;3.92;2.50;;;22.50;53.50;;;;;;4992345;28;20030;-77
2023/07/22 09:33:02;;;;;;;2.78;1.77;;;22.60;53.50;;;;;;4992364;28;20446;-77
2023/07/22 09:35:30;;;;;;;3.13;2.15;;;22.60;53.60;;;;;;4992267;28;20412;-76
2023/07/22 09:37:56;;;;;;;2.45;2.05;;;22.60;53.50;;;;;;4992317;28;20030;-77
2023/07/22 09:40:28;;;;;;;4.55;2.63;;;22.60;53.40;;;;;;4992322;28;20031;-77
2023/07/22 09:42:56;;;;;;;3.90;2.10;;;22.60;52.90;;;;;;4992233;28;20364;-76
2023/07/22 09:45:24;;;;;;;2.70;2.10;;;22.60;53.50;;;;;;4992288;28;20026;-75
2023/07/22 09:47:51;;;;;;;2.15;1.95;;;22.70;53.50;;;;;;4992184;28;20068;-76
2023/07/22 09:50:22;;;;;;;3.15;2.47;;;22.70;53.60;;;;;;4992234;28;20038;-76
2023/07/22 09:52:55;;;;;;;4.18;2.10;;;22.70;53.80;;;;;;4994214;28;20047;-75
2023/07/22 09:55:31;;;;;;;2.95;2.47;;;22.70;53.80;;;;;;4996198;28;20373;-76
2023/07/22 09:58:01;;;;;;;2.95;1.92;;;22.50;72.30;;;;;;4995993;28;20429;-76
2023/07/22 10:00:32;;;;;;;4.60;2.67;;;22.70;53.80;;;;;;4996367;28;20037;-76
2023/07/22 10:03:00;;;;;;;3.20;1.83;;;22.80;53.90;;;;;;4996241;28;20046;-76
2023/07/22 10:05:28;;;;;;;4.53;2.17;;;22.80;53.70;;;;;;4996020;28;20058;-76
2023/07/22 10:07:57;;;;;;;3.15;2.47;;;22.80;53.70;;;;;;4996135;28;20015;-75
2023/07/22 10:10:32;;;;;;;2.67;2.13;;;22.80;53.90;;;;;;4995825;28;20027;-76
2023/07/22 10:12:58;;;;;;;3.22;2.13;;;22.80;53.80;;;;;;4996141;28;20073;-75
2023/07/22 10:15:35;;;;;;;3.70;2.03;;;22.80;53.90;;;;;;4995899;28;20034;-76
2023/07/22 10:18:04;;;;;;;2.70;2.03;;;22.80;53.80;;;;;;4995687;28;20034;-76
2023/07/22 10:20:34;;;;;;;3.92;2.20;;;22.80;53.90;;;;;;4995685;28;20030;-76
2023/07/22 10:23:01;;;;;;;3.63;2.23;;;22.90;53.80;;;;;;4995661;28;20018;-76
2023/07/22 10:25:26;;;;;;;2.95;2.20;;;22.90;53.90;;;;;;4995564;28;20425;-76
2023/07/22 10:27:53;;;;;;;3.70;2.40;;;22.90;53.90;;;;;;4995515;28;20081;-76
2023/07/22 10:30:19;;;;;;;3.22;2.00;;;23.40;54.20;;;;;;4995475;28;20077;-76
2023/07/22 10:32:51;;;;;;;3.58;2.17;;;22.90;53.90;;;;;;4995499;28;20034;-75
2023/07/22 10:35:25;;;;;;;2.70;2.00;;;23.00;72.40;;;;;;4995333;28;20077;-78
2023/07/22 10:37:52;;;;;;;3.58;1.73;;;22.90;53.80;;;;;;4995412;28;20026;-79
2023/07/22 10:40:29;;;;;;;3.08;1.80;;;22.90;53.80;;;;;;4977895;28;20034;-77
2023/07/22 10:43:03;;;;;;;2.83;1.88;;;22.90;53.80;;;;;;4995239;28;20025;-78
2023/07/22 10:45:31;;;;;;;2.53;1.73;;;22.90;53.90;;;;;;4993927;28;20022;-78
2023/07/22 10:48:07;;;;;;;2.22;1.75;;;23.10;72.50;;;;;;4995259;28;20388;-78
2023/07/22 10:50:51;;;;;;;5.63;2.35;;;22.90;54.00;;;;;;4977577;28;20145;-78
2023/07/22 10:53:26;;;;;;;3.90;1.95;;;22.90;53.90;;;;;;4995034;28;20452;-77
2023/07/22 10:56:14;;;;;;;4.25;1.88;;;22.90;54.00;;;;;;4994887;28;20050;-77
2023/07/22 10:58:46;;;;;;;5.57;2.05;;;22.90;53.40;;;;;;4995203;28;20034;-79
2023/07/22 11:01:30;;;;;;;3.63;1.83;;;22.80;73.40;;;;;;4994993;28;20114;-78
2023/07/22 11:04:17;;;;;;;3.55;1.63;;;22.90;53.90;;;;;;4993985;28;20123;-81
2023/07/22 11:06:43;;;;;;;4.10;1.83;;;22.90;53.80;;;;;;4995147;28;20030;-75
2023/07/22 11:09:27;;;;;;;3.15;2.05;;;22.90;53.90;;;;;;4994726;28;20334;-76
2023/07/22 11:11:58;;;;;;;3.35;1.50;;;23.00;53.90;;;;;;4995146;28;20041;-75
2023/07/22 11:14:29;;;;;;;4.38;1.70;;;23.00;53.90;;;;;;4994570;28;20033;-74
2023/07/22 11:16:58;;;;;;;2.10;1.50;;;23.00;53.80;;;;;;4994599;28;20022;-74
2023/07/22 11:19:25;;;;;;;2.13;1.55;;;21.70;53.10;;;;;;4994580;28;20030;-75
2023/07/22 11:21:52;;;;;;;4.93;1.80;;;23.10;53.60;;;;;;4994636;28;20089;-74
2023/07/22 11:24:19;;;;;;;2.10;1.88;;;23.00;53.50;;;;;;4994440;28;20026;-74
2023/07/22 11:26:46;;;;;;;3.15;1.58;;;23.10;71.90;;;;;;4994399;28;20069;-75
2023/07/22 11:29:12;;;;;;;2.85;1.70;;;22.80;71.90;;;;;;4994339;28;20106;-75
2023/07/22 11:31:42;;;;;;;2.38;1.48;;;23.10;53.50;;;;;;4994630;28;20053;-76
2023/07/22 11:34:24;;;;;;;3.55;1.33;;;23.10;53.50;;;;;;4994244;28;20022;-76
2023/07/22 11:36:52;;;;;;;3.38;1.65;;;23.10;53.40;;;;;;4994179;28;20135;-77
2023/07/22 11:39:19;;;;;;;3.50;1.50;;;23.10;53.30;;;;;;4993943;28;20029;-76
2023/07/22 11:41:46;;;;;;;3.95;2.20;;;23.10;53.40;;;;;;4994092;28;20030;-76
2023/07/22 11:44:14;;;;;;;2.97;1.80;;;23.10;53.50;;;;;;4994676;28;20097;-76
2023/07/22 11:46:59;;;;;;;2.47;1.73;;;23.10;53.50;;;;;;4994272;28;20041;-76
2023/07/22 11:49:35;;;;;;;2.10;1.45;;;22.50;53.10;;;;;;4993585;28;20033;-75
2023/07/22 11:52:05;;;;;;;2.42;1.38;;;23.10;53.50;;;;;;4992559;28;20038;-76
2023/07/22 11:54:33;;;;;;;2.73;1.80;;;23.00;72.30;;;;;;4993280;28;20038;-76
2023/07/22 11:57:16;;;;;;;3.90;2.42;;;23.10;53.70;;;;;;4992440;28;20061;-76
2023/07/22 11:59:53;;;;;;;2.63;1.63;;;23.10;53.70;;;;;;4993671;28;20053;-76
2023/07/22 12:02:21;;;;;;;2.72;1.58;;;22.70;53.50;;;;;;4993942;28;20113;-76
2023/07/22 12:05:07;;;;;;;2.88;1.50;;;23.10;53.80;;;;;;4993765;28;20033;-76
2023/07/22 12:07:35;;;;;;;2.72;1.75;;;23.10;53.80;;;;;;4993764;28;20070;-76
2023/07/22 12:10:03;;;;;;;2.72;1.60;;;23.10;53.90;;;;;;4993732;28;20333;-76
2023/07/22 12:12:42;;;;;;;2.08;1.10;;;23.10;53.90;;;;;;4993633;28;20093;-76
2023/07/22 12:15:16;;;;;;;2.25;1.20;;;23.10;53.80;;;;;;4993827;28;20034;-76
2023/07/22 12:17:51;;;;;;;1.98;1.35;;;23.10;53.70;;;;;;4993834;28;20027;-76
2023/07/22 12:20:18;;;;;;;1.55;1.10;;;23.10;53.60;;;;;;4993839;28;20026;-76
2023/07/22 12:22:44;;;;;;;1.60;1.10;;;23.10;53.70;;;;;;4993526;28;20046;-76
2023/07/22 12:25:10;;;;;;;2.03;1.00;;;23.10;53.50;;;;;;4993499;28;20065;-76
2023/07/22 12:27:37;;;;;;;2.88;1.35;;;23.00;53.60;;;;;;4975767;28;20019;-76
2023/07/22 12:30:03;;;;;;;1.88;1.15;;;23.10;53.50;;;;;;4993361;28;20035;-76
2023/07/22 12:32:29;;;;;;;1.42;1.02;;;23.10;53.50;;;;;;4993362;28;20022;-76
2023/07/22 12:34:54;;;;;;;2.85;1.13;;;23.10;53.40;;;;;;4993098;28;20432;-76
2023/07/22 12:37:20;;;;;;;1.42;1.00;;;23.00;53.40;;;;;;4993232;28;20041;-76
2023/07/22 12:39:46;;;;;;;1.38;0.93;;;23.00;53.30;;;;;;4993136;28;20066;-77
2023/07/22 12:42:12;;;;;;;3.35;1.02;;;23.00;53.30;;;;;;4993435;28;20129;-77
2023/07/22 12:44:38;;;;;;;3.40;1.20;;;23.00;53.20;;;;;;4993344;28;20404;-77
2023/07/22 12:47:04;;;;;;;1.35;0.88;;;23.00;53.10;;;;;;4993077;28;20057;-76
2023/07/22 12:49:30;;;;;;;2.28;0.98;;;23.00;53.10;;;;;;4993306;28;20058;-77
2023/07/22 12:52:03;;;;;;;1.65;1.10;;;;;;;;;;4992796;28;20042;-76
2023/07/22 12:54:30;;;;;;;2.03;0.93;;;22.90;71.30;;;;;;4993075;28;20042;-77
2023/07/22 12:56:56;;;;;;;2.13;0.82;;;23.00;52.90;;;;;;4992813;28;20022;-76